createdAt,value
2022-12-17T00:01:22.322Z,40.10
2022-12-17T00:04:08.672Z,38.70
2022-12-17T00:06:56.446Z,43.70
2022-12-17T00:09:48.605Z,44.03
2022-12-17T00:12:36.595Z,42.80
2022-12-17T00:15:23.148Z,44.20
2022-12-17T00:18:09.612Z,38.70
2022-12-17T00:20:56.066Z,45.33
2022-12-17T00:23:43.057Z,41.87
2022-12-17T00:26:29.542Z,46.80
2022-12-17T00:29:23.142Z,43.40
2022-12-17T00:32:10.182Z,44.87
2022-12-17T00:34:56.312Z,44.63
2022-12-17T00:37:43.088Z,44.17
2022-12-17T00:40:29.983Z,47.27
2022-12-17T00:43:23.949Z,44.47
2022-12-17T00:46:11.087Z,43.30
2022-12-17T00:48:57.563Z,41.33
2022-12-17T00:51:44.085Z,44.73
2022-12-17T00:54:30.991Z,42.07
2022-12-17T00:57:17.310Z,43.57
2022-12-17T01:00:03.573Z,42.20
2022-12-17T01:02:50.904Z,42.50
2022-12-17T01:05:39.294Z,41.00
2022-12-17T01:08:28.379Z,39.43
2022-12-17T01:11:25.744Z,41.80
2022-12-17T01:14:12.988Z,38.10
2022-12-17T01:16:59.353Z,35.57
2022-12-17T01:19:45.655Z,42.23
2022-12-17T01:22:31.912Z,39.10
2022-12-17T01:25:19.127Z,40.30
2022-12-17T01:28:10.032Z,43.00
2022-12-17T01:30:57.387Z,43.67
2022-12-17T01:33:43.847Z,42.40
2022-12-17T01:36:30.174Z,35.60
2022-12-17T01:39:16.644Z,41.80
2022-12-17T01:42:10.902Z,33.80
2022-12-17T01:45:14.468Z,37.60
2022-12-17T01:48:08.996Z,36.23
2022-12-17T01:50:58.037Z,39.10
2022-12-17T01:53:47.042Z,39.27
2022-12-17T01:56:33.410Z,37.27
2022-12-17T01:59:20.399Z,38.27
2022-12-17T02:02:06.797Z,41.97
2022-12-17T02:04:53.700Z,35.00
2022-12-17T02:08:05.481Z,36.57
2022-12-17T02:11:14.876Z,37.47
2022-12-17T02:14:06.357Z,41.67
2022-12-17T02:16:56.329Z,35.20
2022-12-17T02:19:50.347Z,35.47
2022-12-17T02:22:44.598Z,37.20
2022-12-17T02:25:35.804Z,37.83
2022-12-17T02:28:22.158Z,37.50
2022-12-17T02:31:09.155Z,36.80
2022-12-17T02:33:56.890Z,35.47
2022-12-17T02:36:43.441Z,37.47
2022-12-17T02:39:30.196Z,39.03
2022-12-17T02:42:17.635Z,39.63
2022-12-17T02:45:04.208Z,33.60
2022-12-17T02:47:50.755Z,36.30
2022-12-17T02:50:37.368Z,38.43
2022-12-17T02:53:48.760Z,35.23
2022-12-17T02:56:35.102Z,31.77
2022-12-17T02:59:21.635Z,34.03
2022-12-17T03:02:08.662Z,35.67
2022-12-17T03:04:55.062Z,39.53
2022-12-17T03:07:41.646Z,37.40
2022-12-17T03:10:28.297Z,35.07
2022-12-17T03:13:14.656Z,30.93
2022-12-17T03:16:01.241Z,34.63
2022-12-17T03:18:47.933Z,34.67
2022-12-17T03:21:34.175Z,30.30
2022-12-17T03:24:20.322Z,34.23
2022-12-17T03:27:06.768Z,32.00
2022-12-17T03:29:52.896Z,36.73
2022-12-17T03:32:39.448Z,34.30
2022-12-17T03:35:26.225Z,34.77
2022-12-17T03:38:12.611Z,35.40
2022-12-17T03:40:58.784Z,32.37
2022-12-17T03:43:45.268Z,34.63
2022-12-17T03:46:31.435Z,30.13
2022-12-17T03:49:18.284Z,33.10
2022-12-17T03:52:05.162Z,29.93
2022-12-17T03:54:51.360Z,31.10
2022-12-17T03:57:38.055Z,32.60
2022-12-17T04:00:25.319Z,30.77
2022-12-17T04:03:12.242Z,29.87
2022-12-17T04:05:58.553Z,29.47
2022-12-17T04:08:45.242Z,32.53
2022-12-17T04:11:31.767Z,30.97
2022-12-17T04:14:17.976Z,30.30
2022-12-17T04:17:04.120Z,32.50
2022-12-17T04:19:50.728Z,34.73
2022-12-17T04:22:37.060Z,33.27
2022-12-17T04:25:23.518Z,31.97
2022-12-17T04:28:10.081Z,33.17
2022-12-17T04:30:56.827Z,29.80
2022-12-17T04:33:43.168Z,32.90
2022-12-17T04:36:29.972Z,30.70
2022-12-17T04:39:16.511Z,27.10
2022-12-17T04:42:03.952Z,29.60
2022-12-17T04:44:50.475Z,29.80
2022-12-17T04:47:37.243Z,32.23
2022-12-17T04:50:23.871Z,33.23
2022-12-17T04:53:10.267Z,31.70
2022-12-17T04:55:56.512Z,29.23
2022-12-17T04:58:43.168Z,31.50
2022-12-17T05:01:30.063Z,33.10
2022-12-17T05:04:16.390Z,28.97
2022-12-17T05:07:02.878Z,31.77
2022-12-17T05:09:49.942Z,32.57
2022-12-17T05:12:36.439Z,22.77
2022-12-17T05:15:23.460Z,31.13
2022-12-17T05:18:12.701Z,33.47
2022-12-17T05:20:59.168Z,30.13
2022-12-17T05:23:45.648Z,27.73
2022-12-17T05:26:39.269Z,30.37
2022-12-17T05:29:25.964Z,26.43
2022-12-17T05:32:12.141Z,28.83
2022-12-17T05:34:58.753Z,31.30
2022-12-17T05:37:45.484Z,29.30
2022-12-17T05:40:31.874Z,29.27
2022-12-17T05:43:19.412Z,23.83
2022-12-17T05:46:07.017Z,25.13
2022-12-17T05:48:54.094Z,24.53
2022-12-17T05:51:40.672Z,24.50
2022-12-17T05:54:27.923Z,26.73
2022-12-17T05:57:14.059Z,26.07
2022-12-17T06:00:00.329Z,31.20
2022-12-17T06:02:47.325Z,25.43
2022-12-17T06:05:33.638Z,32.13
2022-12-17T06:08:23.718Z,28.50
2022-12-17T06:11:10.239Z,32.47
2022-12-17T06:13:56.498Z,29.20
2022-12-17T06:16:42.926Z,33.17
2022-12-17T06:19:29.207Z,26.53
2022-12-17T06:22:15.729Z,28.80
2022-12-17T06:25:01.992Z,31.37
2022-12-17T06:27:48.662Z,30.00
2022-12-17T06:30:34.842Z,30.20
2022-12-17T06:33:25.406Z,29.80
2022-12-17T06:36:19.744Z,30.40
2022-12-17T06:39:07.972Z,29.53
2022-12-17T06:42:02.187Z,25.73
2022-12-17T06:44:51.112Z,31.83
2022-12-17T06:47:37.720Z,27.27
2022-12-17T06:50:24.695Z,26.60
2022-12-17T06:53:18.421Z,28.13
2022-12-17T06:56:04.649Z,26.30
2022-12-17T06:58:51.373Z,26.80
2022-12-17T07:01:38.700Z,27.03
2022-12-17T07:04:25.123Z,26.00
2022-12-17T07:07:15.996Z,28.03
2022-12-17T07:10:02.215Z,27.43
2022-12-17T07:12:48.815Z,30.03
2022-12-17T07:15:35.427Z,30.57
2022-12-17T07:18:22.686Z,31.00
2022-12-17T07:21:12.686Z,26.90
2022-12-17T07:23:58.907Z,26.33
2022-12-17T07:26:46.127Z,27.30
2022-12-17T07:29:32.410Z,32.23
2022-12-17T07:32:18.498Z,28.17
2022-12-17T07:35:04.803Z,29.83
2022-12-17T07:37:51.126Z,29.80
2022-12-17T07:40:38.042Z,25.57
2022-12-17T07:43:31.403Z,26.47
2022-12-17T07:46:18.005Z,28.03
2022-12-17T07:49:04.658Z,30.17
2022-12-17T07:51:51.383Z,29.60
2022-12-17T07:54:37.745Z,28.93
2022-12-17T07:57:24.887Z,26.40
2022-12-17T08:00:11.186Z,27.97
2022-12-17T08:02:57.525Z,30.00
2022-12-17T08:05:44.193Z,34.40
2022-12-17T08:08:31.651Z,33.43
2022-12-17T08:11:18.087Z,26.23
2022-12-17T08:14:05.108Z,28.90
2022-12-17T08:16:51.520Z,25.60
2022-12-17T08:19:40.938Z,29.27
2022-12-17T08:22:28.403Z,29.10
2022-12-17T08:25:14.902Z,29.83
2022-12-17T08:28:07.336Z,25.53
2022-12-17T08:30:57.511Z,27.27
2022-12-17T08:33:44.935Z,26.27
2022-12-17T08:36:32.022Z,31.80
2022-12-17T08:39:18.676Z,29.30
2022-12-17T08:42:06.084Z,27.47
2022-12-17T08:44:52.559Z,29.90
2022-12-17T08:47:39.737Z,26.87
2022-12-17T08:50:26.962Z,32.07
2022-12-17T08:53:20.265Z,30.20
2022-12-17T08:56:06.685Z,25.00
2022-12-17T08:58:57.353Z,30.03
2022-12-17T09:01:45.244Z,35.73
2022-12-17T09:04:31.227Z,31.70
2022-12-17T09:07:16.814Z,26.67
2022-12-17T09:10:02.975Z,28.77
2022-12-17T09:12:49.483Z,31.70
2022-12-17T09:15:35.377Z,30.17
2022-12-17T09:18:21.333Z,28.13
2022-12-17T09:21:14.588Z,34.10
2022-12-17T09:24:00.850Z,30.97
2022-12-17T09:26:47.401Z,33.00
2022-12-17T09:29:33.288Z,32.77
2022-12-17T09:32:19.152Z,27.90
2022-12-17T09:35:05.261Z,29.33
2022-12-17T09:37:51.295Z,28.87
2022-12-17T09:40:43.486Z,32.77
2022-12-17T09:43:51.224Z,32.17
2022-12-17T09:46:43.901Z,25.87
2022-12-17T09:49:29.577Z,26.67
2022-12-17T09:52:15.834Z,27.07
2022-12-17T09:55:07.317Z,28.27
2022-12-17T09:57:55.928Z,26.07
2022-12-17T10:00:45.337Z,28.80
2022-12-17T10:03:35.209Z,30.50
2022-12-17T10:06:29.116Z,23.60
2022-12-17T10:09:18.791Z,26.60
2022-12-17T10:12:05.217Z,27.43
2022-12-17T10:14:51.601Z,27.73
2022-12-17T10:17:42.232Z,27.80
2022-12-17T10:20:40.348Z,27.70
2022-12-17T10:23:26.423Z,24.27
2022-12-17T10:26:14.975Z,19.97
2022-12-17T10:29:01.560Z,25.37
2022-12-17T10:31:49.424Z,30.40
2022-12-17T10:34:39.645Z,27.80
2022-12-17T10:37:37.063Z,27.13
2022-12-17T10:40:39.269Z,31.37
2022-12-17T10:43:48.543Z,27.30
2022-12-17T10:46:46.893Z,27.23
2022-12-17T10:49:34.154Z,27.40
2022-12-17T10:52:26.247Z,31.00
2022-12-17T10:55:19.710Z,27.10
2022-12-17T10:58:08.075Z,26.90
2022-12-17T11:00:59.295Z,32.20
2022-12-17T11:04:09.150Z,26.63
2022-12-17T11:07:00.638Z,27.20
2022-12-17T11:09:50.708Z,26.47
2022-12-17T11:12:38.682Z,23.67
2022-12-17T11:15:43.702Z,22.73
2022-12-17T11:18:36.847Z,20.80
2022-12-17T11:21:32.693Z,22.67
2022-12-17T11:24:22.786Z,19.73
2022-12-17T11:27:11.160Z,17.57
2022-12-17T11:29:57.406Z,18.60
2022-12-17T11:32:44.191Z,17.97
2022-12-17T11:35:37.055Z,18.10
2022-12-17T11:38:26.551Z,16.87
2022-12-17T11:41:32.028Z,16.00
2022-12-17T11:44:31.138Z,13.90
2022-12-17T11:47:29.524Z,16.00
2022-12-17T11:50:21.932Z,17.83
2022-12-17T11:53:11.154Z,16.50
2022-12-17T11:56:08.039Z,14.43
2022-12-17T11:59:01.596Z,15.57
2022-12-17T12:02:02.292Z,15.50
2022-12-17T12:04:48.627Z,17.40
2022-12-17T12:07:57.829Z,14.10
2022-12-17T12:10:48.147Z,15.57
2022-12-17T12:13:48.704Z,15.70
2022-12-17T12:16:44.097Z,14.80
2022-12-17T12:19:33.946Z,17.03
2022-12-17T12:22:35.701Z,18.10
2022-12-17T12:25:38.811Z,14.73
2022-12-17T12:28:25.516Z,14.40
2022-12-17T12:31:21.116Z,16.47
2022-12-17T12:34:11.744Z,15.30
2022-12-17T12:37:00.878Z,15.77
2022-12-17T12:39:55.158Z,16.90
2022-12-17T12:43:08.215Z,17.10
2022-12-17T12:46:03.716Z,15.87
2022-12-17T12:48:49.898Z,15.40
2022-12-17T12:51:42.379Z,17.47
2022-12-17T12:54:46.723Z,13.50
2022-12-17T12:57:51.889Z,20.23
2022-12-17T13:00:43.197Z,14.63
2022-12-17T13:03:48.658Z,16.10
2022-12-17T13:06:35.991Z,14.53
2022-12-17T13:09:07.108Z,16.33
2022-12-17T13:11:38.739Z,15.17
2022-12-17T13:14:12.540Z,16.10
2022-12-17T13:16:46.615Z,15.17
2022-12-17T13:19:32.510Z,15.67
2022-12-17T13:22:28.129Z,16.53
2022-12-17T13:24:57.380Z,14.53
2022-12-17T13:27:32.033Z,17.57
2022-12-17T13:30:11.819Z,18.80
2022-12-17T13:32:44.581Z,15.50
2022-12-17T13:35:22.537Z,15.63
2022-12-17T13:37:56.289Z,16.23
2022-12-17T13:40:30.153Z,14.60
2022-12-17T13:42:57.823Z,18.90
2022-12-17T13:45:26.764Z,18.47
2022-12-17T13:47:58.647Z,18.13
2022-12-17T13:50:35.573Z,20.00
2022-12-17T13:53:12.736Z,16.77
2022-12-17T13:55:40.615Z,17.87
2022-12-17T13:58:21.404Z,18.07
2022-12-17T14:00:49.982Z,18.80
2022-12-17T14:03:37.141Z,19.20
2022-12-17T14:06:10.524Z,18.40
2022-12-17T14:08:39.013Z,17.63
2022-12-17T14:11:25.421Z,17.83
2022-12-17T14:13:53.153Z,20.17
2022-12-17T14:16:21.929Z,17.70
2022-12-17T14:18:54.041Z,16.40
2022-12-17T14:21:25.767Z,19.20
2022-12-17T14:23:53.553Z,20.50
2022-12-17T14:26:21.496Z,18.70
2022-12-17T14:28:50.937Z,17.00
2022-12-17T14:31:27.214Z,18.80
2022-12-17T14:34:07.135Z,16.77
2022-12-17T14:36:36.610Z,19.53
2022-12-17T14:39:25.009Z,19.53
2022-12-17T14:42:12.239Z,18.20
2022-12-17T14:44:49.703Z,21.23
2022-12-17T14:47:22.501Z,19.97
2022-12-17T14:49:58.775Z,17.77
2022-12-17T14:52:38.874Z,19.77
2022-12-17T14:55:26.445Z,20.67
2022-12-17T14:57:54.984Z,19.53
2022-12-17T15:00:22.653Z,20.13
2022-12-17T15:02:55.547Z,20.20
2022-12-17T15:05:23.297Z,21.20
2022-12-17T15:07:51.833Z,20.30
2022-12-17T15:10:20.619Z,20.17
2022-12-17T15:12:51.304Z,17.77
2022-12-17T15:15:20.835Z,19.47
2022-12-17T15:17:49.027Z,18.83
2022-12-17T15:20:18.036Z,21.60
2022-12-17T15:22:45.782Z,24.87
2022-12-17T15:25:14.801Z,20.67
2022-12-17T15:27:42.460Z,18.00
2022-12-17T15:30:13.549Z,22.10
2022-12-17T15:32:41.167Z,15.50
2022-12-17T15:35:09.285Z,19.30
2022-12-17T15:37:37.477Z,21.27
2022-12-17T15:40:05.981Z,20.97
2022-12-17T15:42:52.464Z,21.50
2022-12-17T15:45:20.002Z,19.53
2022-12-17T15:47:47.653Z,23.07
2022-12-17T15:50:15.656Z,18.43
2022-12-17T15:52:43.613Z,20.53
2022-12-17T15:55:12.515Z,24.37
2022-12-17T15:57:40.061Z,19.00
2022-12-17T16:00:08.168Z,16.20
2022-12-17T16:02:36.660Z,20.13
2022-12-17T16:05:04.850Z,24.03
2022-12-17T16:07:32.492Z,23.20
2022-12-17T16:10:05.057Z,23.07
2022-12-17T16:12:37.982Z,22.87
2022-12-17T16:15:06.953Z,16.00
2022-12-17T16:17:35.191Z,17.00
2022-12-17T16:20:03.077Z,15.23
2022-12-17T16:22:30.679Z,14.13
2022-12-17T16:24:58.628Z,23.23
2022-12-17T16:27:26.243Z,24.60
2022-12-17T16:29:54.045Z,21.33
2022-12-17T16:32:21.708Z,18.80
2022-12-17T16:34:49.363Z,21.50
2022-12-17T16:37:17.148Z,23.43
2022-12-17T16:39:44.701Z,18.53
2022-12-17T16:42:12.270Z,20.73
2022-12-17T16:44:39.857Z,18.87
2022-12-17T16:47:08.619Z,19.70
2022-12-17T16:49:36.369Z,19.50
2022-12-17T16:52:04.004Z,23.37
2022-12-17T16:54:33.481Z,26.20
2022-12-17T16:57:01.523Z,19.37
2022-12-17T16:59:29.817Z,21.37
2022-12-17T17:01:57.587Z,15.93
2022-12-17T17:04:25.402Z,21.13
2022-12-17T17:06:54.344Z,13.00
2022-12-17T17:09:22.650Z,21.07
2022-12-17T17:11:51.978Z,26.43
2022-12-17T17:14:20.057Z,20.93
2022-12-17T17:16:47.966Z,21.47
2022-12-17T17:19:16.017Z,21.27
2022-12-17T17:21:48.244Z,18.13
2022-12-17T17:24:21.213Z,23.67
2022-12-17T17:26:50.187Z,18.30
2022-12-17T17:29:18.129Z,22.07
2022-12-17T17:32:09.224Z,19.87
2022-12-17T17:34:33.287Z,22.40
2022-12-17T17:37:00.951Z,23.27
2022-12-17T17:39:31.722Z,22.53
2022-12-17T17:41:59.391Z,16.90
2022-12-17T17:44:27.120Z,24.50
2022-12-17T17:46:54.744Z,21.13
2022-12-17T17:49:22.402Z,20.30
2022-12-17T17:54:39.574Z,20.80
2022-12-17T17:57:07.465Z,20.47
2022-12-17T17:59:35.035Z,19.97
2022-12-17T18:02:03.456Z,21.23
2022-12-17T18:04:32.062Z,18.93
2022-12-17T18:07:24.260Z,18.13
2022-12-17T18:09:47.311Z,20.97
2022-12-17T18:12:33.945Z,21.47
2022-12-17T18:15:18.402Z,19.77
2022-12-17T18:17:47.379Z,22.00
2022-12-17T18:20:15.235Z,19.37
2022-12-17T18:22:43.483Z,21.60
2022-12-17T18:25:11.083Z,29.03
2022-12-17T18:27:39.442Z,29.73
2022-12-17T18:30:07.425Z,27.20
2022-12-17T18:32:35.116Z,42.77
2022-12-17T18:35:02.744Z,31.03
2022-12-17T18:37:31.023Z,73.00
2022-12-17T18:39:58.738Z,29.83
2022-12-17T18:42:44.956Z,25.73
2022-12-17T18:45:12.679Z,23.20
2022-12-17T18:47:42.399Z,20.20
2022-12-17T18:50:10.821Z,22.47
2022-12-17T18:52:38.682Z,19.73
2022-12-17T18:55:06.582Z,21.10
2022-12-17T18:57:34.460Z,22.43
2022-12-17T19:00:02.053Z,22.73
2022-12-17T19:02:29.768Z,26.40
2022-12-17T19:04:57.419Z,24.60
2022-12-17T19:07:24.989Z,21.63
2022-12-17T19:09:52.604Z,25.63
2022-12-17T19:12:22.976Z,24.80
2022-12-17T19:14:50.561Z,28.13
2022-12-17T19:17:18.152Z,26.07
2022-12-17T19:19:45.699Z,27.20
2022-12-17T19:22:13.356Z,27.83
2022-12-17T19:24:41.334Z,23.50
2022-12-17T19:27:08.941Z,21.17
2022-12-17T19:29:36.535Z,24.60
2022-12-17T19:32:04.336Z,22.30
2022-12-17T19:34:34.962Z,28.37
2022-12-17T19:37:03.418Z,25.97
2022-12-17T19:39:31.559Z,26.43
2022-12-17T19:41:59.098Z,24.03
2022-12-17T19:44:27.185Z,29.43
2022-12-17T19:46:56.064Z,28.33
2022-12-17T19:49:24.131Z,30.27
2022-12-17T19:51:51.818Z,26.60
2022-12-17T19:54:19.379Z,22.97
2022-12-17T19:56:47.025Z,30.50
2022-12-17T19:59:14.668Z,26.37
2022-12-17T20:01:44.358Z,26.87
2022-12-17T20:04:12.995Z,29.70
2022-12-17T20:06:40.710Z,31.70
2022-12-17T20:09:08.320Z,29.47
2022-12-17T20:11:36.291Z,28.73
2022-12-17T20:14:04.005Z,25.93
2022-12-17T20:16:32.420Z,26.73
2022-12-17T20:19:00.716Z,23.13
2022-12-17T20:21:29.077Z,24.30
2022-12-17T20:23:56.903Z,23.47
2022-12-17T20:26:24.705Z,25.90
2022-12-17T20:28:52.670Z,26.73
2022-12-17T20:31:20.780Z,28.87
2022-12-17T20:33:48.432Z,29.63
2022-12-17T20:36:17.760Z,23.33
2022-12-17T20:38:45.665Z,28.77
2022-12-17T20:41:14.968Z,25.20
2022-12-17T20:43:43.004Z,22.13
2022-12-17T20:46:10.857Z,24.13
2022-12-17T20:48:39.568Z,29.13
2022-12-17T20:51:08.643Z,23.93
2022-12-17T20:53:36.758Z,28.17
2022-12-17T20:56:05.301Z,22.07
2022-12-17T20:58:33.306Z,29.53
2022-12-17T21:01:04.959Z,23.17
2022-12-17T21:03:32.840Z,23.97
2022-12-17T21:06:07.523Z,23.60
2022-12-17T21:08:35.528Z,25.27
2022-12-17T21:11:03.618Z,25.73
2022-12-17T21:13:31.250Z,19.07
2022-12-17T21:16:00.032Z,22.40
2022-12-17T21:18:28.254Z,25.47
2022-12-17T21:21:00.155Z,20.63
2022-12-17T21:23:29.616Z,21.83
2022-12-17T21:25:58.319Z,18.63
2022-12-17T21:28:26.682Z,19.20
2022-12-17T21:30:54.401Z,21.00
2022-12-17T21:33:22.566Z,14.70
2022-12-17T21:35:50.722Z,18.70
2022-12-17T21:38:18.707Z,25.47
2022-12-17T21:40:46.294Z,17.30
2022-12-17T21:43:13.816Z,19.23
2022-12-17T21:45:42.558Z,18.53
2022-12-17T21:48:12.435Z,12.57
2022-12-17T21:50:44.089Z,18.70
2022-12-17T21:53:12.779Z,16.60
2022-12-17T21:55:40.367Z,20.00
2022-12-17T21:58:08.787Z,18.67
2022-12-17T22:00:36.460Z,16.43
2022-12-17T22:03:04.046Z,16.27
2022-12-17T22:05:31.946Z,12.50
2022-12-17T22:07:59.936Z,15.23
2022-12-17T22:10:41.023Z,13.90
2022-12-17T22:13:34.311Z,16.50
2022-12-17T22:16:05.853Z,16.43
2022-12-17T22:18:33.525Z,17.93
2022-12-17T22:21:01.425Z,15.90
2022-12-17T22:23:29.249Z,17.20
2022-12-17T22:25:57.703Z,14.10
2022-12-17T22:28:25.292Z,16.80
2022-12-17T22:31:11.723Z,11.13
2022-12-17T22:34:17.861Z,13.77
2022-12-17T22:39:59.930Z,12.30
2022-12-17T22:44:32.115Z,17.93
2022-12-17T22:44:36.107Z,13.07
2022-12-17T22:45:16.073Z,15.00
2022-12-17T22:47:46.155Z,11.57
2022-12-17T22:50:13.723Z,12.80
2022-12-17T22:52:41.944Z,13.20
2022-12-17T22:55:09.976Z,15.50
2022-12-17T22:57:38.517Z,15.23
2022-12-17T23:00:08.696Z,13.23
2022-12-17T23:02:38.033Z,14.27
2022-12-17T23:05:05.941Z,14.43
2022-12-17T23:07:33.534Z,13.13
2022-12-17T23:10:01.905Z,15.93
2022-12-17T23:12:48.180Z,16.50
2022-12-17T23:15:16.090Z,11.53
2022-12-17T23:17:44.068Z,13.90
2022-12-17T23:20:12.340Z,14.47
2022-12-17T23:22:39.944Z,15.10
2022-12-17T23:25:08.078Z,12.27
2022-12-17T23:27:35.956Z,12.30
2022-12-17T23:30:04.759Z,13.27
2022-12-17T23:32:33.466Z,12.50
2022-12-17T23:35:01.029Z,12.83
2022-12-17T23:37:28.672Z,16.37
2022-12-17T23:39:56.235Z,10.60
2022-12-17T23:42:23.810Z,12.90
2022-12-17T23:44:52.159Z,12.40
2022-12-17T23:47:20.012Z,13.53
2022-12-17T23:49:47.841Z,12.63
2022-12-17T23:52:15.442Z,13.00
2022-12-17T23:54:43.017Z,11.43
2022-12-17T23:57:11.100Z,14.13
2022-12-17T23:59:38.752Z,10.93
